METAR Data
IDs: Format: Raw Decoded Include TAF

Data at: 1446 UTC 25 Jan 2020

METAR for:KSDA (Shenandoah Muni, IA, US)
Text:KSDA 251435Z AUTO 25009KT 7SM OVC005 M04/M04 A3011 RMK AO2
Temperature: -4.0°C ( 25°F)
Dewpoint: -4.0°C ( 25°F) [RH = 100%]
Pressure (altimeter):30.11 inches Hg (1019.7 mb)
Winds:from the WSW (250 degrees) at 10 MPH (9 knots; 4.6 m/s)
Visibility: 7 sm ( 11 km)
Ceiling:500 feet AGL
Clouds: overcast cloud deck at 500 feet AGL
QC Flag:automated observation with no human augmentation